sensor_id;sensor_type;location;lat;lon;timestamp;temperature;humidity
66184;DHT22;52989;48.796;9.806;2022-09-02T00:00:39;15.60;92.00
66184;DHT22;52989;48.796;9.806;2022-09-02T00:03:05;15.70;91.80
66184;DHT22;52989;48.796;9.806;2022-09-02T00:05:31;15.80;91.30
66184;DHT22;52989;48.796;9.806;2022-09-02T00:07:57;15.80;91.40
66184;DHT22;52989;48.796;9.806;2022-09-02T00:10:23;15.60;92.10
66184;DHT22;52989;48.796;9.806;2022-09-02T00:12:48;15.40;92.20
66184;DHT22;52989;48.796;9.806;2022-09-02T00:15:14;15.40;92.00
66184;DHT22;52989;48.796;9.806;2022-09-02T00:17:39;15.30;92.20
66184;DHT22;52989;48.796;9.806;2022-09-02T00:20:05;15.40;92.70
66184;DHT22;52989;48.796;9.806;2022-09-02T00:22:31;15.20;92.50
66184;DHT22;52989;48.796;9.806;2022-09-02T00:24:58;15.20;92.60
66184;DHT22;52989;48.796;9.806;2022-09-02T00:27:24;15.20;92.50
66184;DHT22;52989;48.796;9.806;2022-09-02T00:29:49;15.30;92.40
66184;DHT22;52989;48.796;9.806;2022-09-02T00:32:15;15.30;92.80
66184;DHT22;52989;48.796;9.806;2022-09-02T00:34:40;15.20;92.30
66184;DHT22;52989;48.796;9.806;2022-09-02T00:37:06;15.30;92.80
66184;DHT22;52989;48.796;9.806;2022-09-02T00:39:31;15.20;92.80
66184;DHT22;52989;48.796;9.806;2022-09-02T00:41:57;15.10;93.10
66184;DHT22;52989;48.796;9.806;2022-09-02T00:44:23;15.00;92.80
66184;DHT22;52989;48.796;9.806;2022-09-02T00:46:49;15.00;92.70
66184;DHT22;52989;48.796;9.806;2022-09-02T00:49:26;15.00;93.00
66184;DHT22;52989;48.796;9.806;2022-09-02T00:52:10;14.90;92.90
66184;DHT22;52989;48.796;9.806;2022-09-02T00:54:44;14.90;92.90
66184;DHT22;52989;48.796;9.806;2022-09-02T00:57:12;14.80;93.30
66184;DHT22;52989;48.796;9.806;2022-09-02T01:00:21;14.60;93.60
66184;DHT22;52989;48.796;9.806;2022-09-02T01:02:43;14.70;93.40
66184;DHT22;52989;48.796;9.806;2022-09-02T01:05:15;14.60;93.60
66184;DHT22;52989;48.796;9.806;2022-09-02T01:07:42;14.50;93.50
66184;DHT22;52989;48.796;9.806;2022-09-02T01:10:12;14.70;94.40
66184;DHT22;52989;48.796;9.806;2022-09-02T01:12:39;14.50;93.60
66184;DHT22;52989;48.796;9.806;2022-09-02T01:15:06;14.60;93.40
66184;DHT22;52989;48.796;9.806;2022-09-02T01:17:34;14.50;93.60
66184;DHT22;52989;48.796;9.806;2022-09-02T01:20:07;14.40;94.10
66184;DHT22;52989;48.796;9.806;2022-09-02T01:22:36;14.40;94.20
66184;DHT22;52989;48.796;9.806;2022-09-02T01:25:24;14.30;94.00
66184;DHT22;52989;48.796;9.806;2022-09-02T01:27:52;14.30;94.70
66184;DHT22;52989;48.796;9.806;2022-09-02T01:30:22;14.30;94.90
66184;DHT22;52989;48.796;9.806;2022-09-02T01:32:48;14.40;94.20
66184;DHT22;52989;48.796;9.806;2022-09-02T01:35:14;14.60;94.10
66184;DHT22;52989;48.796;9.806;2022-09-02T01:37:40;14.70;93.50
66184;DHT22;52989;48.796;9.806;2022-09-02T01:40:10;14.70;93.70
66184;DHT22;52989;48.796;9.806;2022-09-02T01:42:36;14.60;93.90
66184;DHT22;52989;48.796;9.806;2022-09-02T01:45:03;14.70;94.20
66184;DHT22;52989;48.796;9.806;2022-09-02T01:47:29;14.80;93.20
66184;DHT22;52989;48.796;9.806;2022-09-02T01:49:55;14.80;93.30
66184;DHT22;52989;48.796;9.806;2022-09-02T01:52:23;14.90;92.80
66184;DHT22;52989;48.796;9.806;2022-09-02T01:54:49;14.80;92.90
66184;DHT22;52989;48.796;9.806;2022-09-02T01:57:15;14.90;92.50
66184;DHT22;52989;48.796;9.806;2022-09-02T01:59:40;14.60;93.20
66184;DHT22;52989;48.796;9.806;2022-09-02T02:02:09;14.70;92.90
66184;DHT22;52989;48.796;9.806;2022-09-02T02:04:35;14.50;93.50
66184;DHT22;52989;48.796;9.806;2022-09-02T02:07:00;14.30;93.60
66184;DHT22;52989;48.796;9.806;2022-09-02T02:09:26;14.40;92.80
66184;DHT22;52989;48.796;9.806;2022-09-02T02:11:52;14.70;92.60
66184;DHT22;52989;48.796;9.806;2022-09-02T02:14:18;14.90;92.30
66184;DHT22;52989;48.796;9.806;2022-09-02T02:16:44;14.90;92.80
66184;DHT22;52989;48.796;9.806;2022-09-02T02:19:10;15.00;91.70
66184;DHT22;52989;48.796;9.806;2022-09-02T02:21:36;14.80;92.10
66184;DHT22;52989;48.796;9.806;2022-09-02T02:24:02;14.80;91.50
66184;DHT22;52989;48.796;9.806;2022-09-02T02:26:28;14.80;91.70
66184;DHT22;52989;48.796;9.806;2022-09-02T02:28:54;14.90;91.90
66184;DHT22;52989;48.796;9.806;2022-09-02T02:31:20;14.80;91.80
66184;DHT22;52989;48.796;9.806;2022-09-02T02:33:46;14.90;92.00
66184;DHT22;52989;48.796;9.806;2022-09-02T02:36:12;14.80;92.40
66184;DHT22;52989;48.796;9.806;2022-09-02T02:38:39;14.50;93.00
66184;DHT22;52989;48.796;9.806;2022-09-02T02:41:06;14.40;92.60
66184;DHT22;52989;48.796;9.806;2022-09-02T02:43:35;14.30;92.40
66184;DHT22;52989;48.796;9.806;2022-09-02T02:46:02;14.30;92.90
66184;DHT22;52989;48.796;9.806;2022-09-02T02:48:27;14.40;93.20
66184;DHT22;52989;48.796;9.806;2022-09-02T02:50:54;14.30;93.60
66184;DHT22;52989;48.796;9.806;2022-09-02T02:53:19;14.00;93.50
66184;DHT22;52989;48.796;9.806;2022-09-02T02:55:45;14.10;93.10
66184;DHT22;52989;48.796;9.806;2022-09-02T02:58:11;14.10;93.10
66184;DHT22;52989;48.796;9.806;2022-09-02T03:00:37;13.90;93.80
66184;DHT22;52989;48.796;9.806;2022-09-02T03:03:06;14.00;94.00
66184;DHT22;52989;48.796;9.806;2022-09-02T03:05:33;14.00;93.40
66184;DHT22;52989;48.796;9.806;2022-09-02T03:08:00;14.00;93.60
66184;DHT22;52989;48.796;9.806;2022-09-02T03:10:27;13.90;95.30
66184;DHT22;52989;48.796;9.806;2022-09-02T03:12:53;14.00;93.60
66184;DHT22;52989;48.796;9.806;2022-09-02T03:15:20;13.90;93.70
66184;DHT22;52989;48.796;9.806;2022-09-02T03:17:47;13.80;94.20
66184;DHT22;52989;48.796;9.806;2022-09-02T03:20:14;13.80;94.10
66184;DHT22;52989;48.796;9.806;2022-09-02T03:22:42;13.90;94.60
66184;DHT22;52989;48.796;9.806;2022-09-02T03:25:10;13.80;95.10
66184;DHT22;52989;48.796;9.806;2022-09-02T03:27:37;13.60;94.70
66184;DHT22;52989;48.796;9.806;2022-09-02T03:30:05;13.60;95.40
66184;DHT22;52989;48.796;9.806;2022-09-02T03:32:32;13.60;95.10
66184;DHT22;52989;48.796;9.806;2022-09-02T03:34:57;13.30;95.20
66184;DHT22;52989;48.796;9.806;2022-09-02T03:37:23;13.40;95.50
66184;DHT22;52989;48.796;9.806;2022-09-02T03:39:49;13.40;95.50
66184;DHT22;52989;48.796;9.806;2022-09-02T03:42:14;13.40;95.90
66184;DHT22;52989;48.796;9.806;2022-09-02T03:44:40;13.00;96.60
66184;DHT22;52989;48.796;9.806;2022-09-02T03:47:06;12.90;97.30
66184;DHT22;52989;48.796;9.806;2022-09-02T03:49:33;13.10;96.90
66184;DHT22;52989;48.796;9.806;2022-09-02T03:51:59;13.20;96.10
66184;DHT22;52989;48.796;9.806;2022-09-02T03:54:25;13.50;96.10
66184;DHT22;52989;48.796;9.806;2022-09-02T03:56:50;13.30;96.50
66184;DHT22;52989;48.796;9.806;2022-09-02T03:59:17;12.90;97.10
66184;DHT22;52989;48.796;9.806;2022-09-02T04:01:42;13.10;96.90
66184;DHT22;52989;48.796;9.806;2022-09-02T04:04:09;12.90;97.30
66184;DHT22;52989;48.796;9.806;2022-09-02T04:06:35;12.90;96.90
66184;DHT22;52989;48.796;9.806;2022-09-02T04:09:01;12.70;97.60
66184;DHT22;52989;48.796;9.806;2022-09-02T04:11:27;12.90;97.10
66184;DHT22;52989;48.796;9.806;2022-09-02T04:13:53;13.30;98.60
66184;DHT22;52989;48.796;9.806;2022-09-02T04:16:22;13.10;97.30
66184;DHT22;52989;48.796;9.806;2022-09-02T04:18:55;13.20;97.00
66184;DHT22;52989;48.796;9.806;2022-09-02T04:21:22;13.00;96.90
66184;DHT22;52989;48.796;9.806;2022-09-02T04:23:48;12.80;97.30
66184;DHT22;52989;48.796;9.806;2022-09-02T04:26:16;12.80;97.60
66184;DHT22;52989;48.796;9.806;2022-09-02T04:28:42;12.80;97.30
66184;DHT22;52989;48.796;9.806;2022-09-02T04:31:10;12.90;97.40
66184;DHT22;52989;48.796;9.806;2022-09-02T04:33:37;12.80;97.50
66184;DHT22;52989;48.796;9.806;2022-09-02T04:36:09;13.00;97.70
66184;DHT22;52989;48.796;9.806;2022-09-02T04:38:35;12.90;98.00
66184;DHT22;52989;48.796;9.806;2022-09-02T04:41:09;13.10;98.20
66184;DHT22;52989;48.796;9.806;2022-09-02T04:43:36;13.00;98.50
66184;DHT22;52989;48.796;9.806;2022-09-02T04:46:06;13.00;98.40
66184;DHT22;52989;48.796;9.806;2022-09-02T04:48:33;13.00;98.40
66184;DHT22;52989;48.796;9.806;2022-09-02T04:51:05;12.90;98.90
66184;DHT22;52989;48.796;9.806;2022-09-02T04:53:32;12.90;99.90
66184;DHT22;52989;48.796;9.806;2022-09-02T04:55:58;13.00;97.90
66184;DHT22;52989;48.796;9.806;2022-09-02T04:58:23;12.90;98.40
66184;DHT22;52989;48.796;9.806;2022-09-02T05:00:49;12.80;98.40
66184;DHT22;52989;48.796;9.806;2022-09-02T05:03:15;13.20;99.90
66184;DHT22;52989;48.796;9.806;2022-09-02T05:05:40;13.10;97.70
66184;DHT22;52989;48.796;9.806;2022-09-02T05:08:06;13.10;99.10
66184;DHT22;52989;48.796;9.806;2022-09-02T05:10:32;12.70;99.90
66184;DHT22;52989;48.796;9.806;2022-09-02T05:12:58;12.60;98.70
66184;DHT22;52989;48.796;9.806;2022-09-02T05:15:24;12.60;99.40
66184;DHT22;52989;48.796;9.806;2022-09-02T05:17:51;12.50;99.90
66184;DHT22;52989;48.796;9.806;2022-09-02T05:20:17;12.80;98.60
66184;DHT22;52989;48.796;9.806;2022-09-02T05:22:42;12.70;99.00
66184;DHT22;52989;48.796;9.806;2022-09-02T05:25:09;12.70;98.80
66184;DHT22;52989;48.796;9.806;2022-09-02T05:27:36;12.80;98.90
66184;DHT22;52989;48.796;9.806;2022-09-02T05:30:03;13.00;98.40
66184;DHT22;52989;48.796;9.806;2022-09-02T05:32:29;13.00;98.60
66184;DHT22;52989;48.796;9.806;2022-09-02T05:34:55;13.00;98.90
66184;DHT22;52989;48.796;9.806;2022-09-02T05:37:21;12.70;99.10
66184;DHT22;52989;48.796;9.806;2022-09-02T05:39:47;12.90;99.10
66184;DHT22;52989;48.796;9.806;2022-09-02T05:42:13;12.80;98.60
66184;DHT22;52989;48.796;9.806;2022-09-02T05:44:41;12.90;99.80
66184;DHT22;52989;48.796;9.806;2022-09-02T05:47:10;12.80;99.40
66184;DHT22;52989;48.796;9.806;2022-09-02T05:49:35;12.60;99.90
66184;DHT22;52989;48.796;9.806;2022-09-02T05:52:01;12.70;99.80
66184;DHT22;52989;48.796;9.806;2022-09-02T05:54:31;12.90;99.50
66184;DHT22;52989;48.796;9.806;2022-09-02T05:57:03;13.10;99.00
66184;DHT22;52989;48.796;9.806;2022-09-02T05:59:29;13.20;98.50
66184;DHT22;52989;48.796;9.806;2022-09-02T06:01:57;13.50;98.60
66184;DHT22;52989;48.796;9.806;2022-09-02T06:04:23;13.20;98.40
66184;DHT22;52989;48.796;9.806;2022-09-02T06:06:49;13.00;99.90
66184;DHT22;52989;48.796;9.806;2022-09-02T06:09:18;13.20;99.90
66184;DHT22;52989;48.796;9.806;2022-09-02T06:11:44;13.50;99.70
66184;DHT22;52989;48.796;9.806;2022-09-02T06:14:14;13.80;98.80
66184;DHT22;52989;48.796;9.806;2022-09-02T06:16:41;13.60;98.20
66184;DHT22;52989;48.796;9.806;2022-09-02T06:19:08;13.90;99.20
66184;DHT22;52989;48.796;9.806;2022-09-02T06:21:35;13.70;99.00
66184;DHT22;52989;48.796;9.806;2022-09-02T06:24:00;13.90;98.10
66184;DHT22;52989;48.796;9.806;2022-09-02T06:26:28;13.70;98.20
66184;DHT22;52989;48.796;9.806;2022-09-02T06:28:54;14.20;97.80
66184;DHT22;52989;48.796;9.806;2022-09-02T06:31:21;14.40;97.20
66184;DHT22;52989;48.796;9.806;2022-09-02T06:33:49;14.50;97.40
66184;DHT22;52989;48.796;9.806;2022-09-02T06:36:17;14.70;97.00
66184;DHT22;52989;48.796;9.806;2022-09-02T06:38:46;14.50;97.10
66184;DHT22;52989;48.796;9.806;2022-09-02T06:41:15;14.60;97.70
66184;DHT22;52989;48.796;9.806;2022-09-02T06:43:41;14.70;97.00
66184;DHT22;52989;48.796;9.806;2022-09-02T06:46:07;14.50;98.00
66184;DHT22;52989;48.796;9.806;2022-09-02T06:48:38;14.80;97.50
66184;DHT22;52989;48.796;9.806;2022-09-02T06:51:04;15.00;97.40
66184;DHT22;52989;48.796;9.806;2022-09-02T06:53:29;15.00;97.40
66184;DHT22;52989;48.796;9.806;2022-09-02T06:55:55;15.00;97.80
66184;DHT22;52989;48.796;9.806;2022-09-02T06:58:21;15.10;97.10
66184;DHT22;52989;48.796;9.806;2022-09-02T07:00:46;15.50;97.20
66184;DHT22;52989;48.796;9.806;2022-09-02T07:03:12;15.40;97.30
66184;DHT22;52989;48.796;9.806;2022-09-02T07:06:05;15.50;96.70
66184;DHT22;52989;48.796;9.806;2022-09-02T07:08:38;15.60;96.10
66184;DHT22;52989;48.796;9.806;2022-09-02T07:11:05;16.00;95.20
66184;DHT22;52989;48.796;9.806;2022-09-02T07:13:31;15.90;95.90
66184;DHT22;52989;48.796;9.806;2022-09-02T07:15:57;16.00;95.10
66184;DHT22;52989;48.796;9.806;2022-09-02T07:18:23;16.20;95.20
66184;DHT22;52989;48.796;9.806;2022-09-02T07:20:48;16.10;94.80
66184;DHT22;52989;48.796;9.806;2022-09-02T07:23:14;16.40;94.40
66184;DHT22;52989;48.796;9.806;2022-09-02T07:25:41;16.10;95.40
66184;DHT22;52989;48.796;9.806;2022-09-02T07:28:08;16.20;94.30
66184;DHT22;52989;48.796;9.806;2022-09-02T07:30:34;16.20;94.10
66184;DHT22;52989;48.796;9.806;2022-09-02T07:32:59;16.40;94.70
66184;DHT22;52989;48.796;9.806;2022-09-02T07:35:26;16.30;93.60
66184;DHT22;52989;48.796;9.806;2022-09-02T07:37:52;16.60;94.40
66184;DHT22;52989;48.796;9.806;2022-09-02T07:40:18;16.60;93.60
66184;DHT22;52989;48.796;9.806;2022-09-02T07:42:43;16.70;94.10
66184;DHT22;52989;48.796;9.806;2022-09-02T07:45:10;16.60;94.40
66184;DHT22;52989;48.796;9.806;2022-09-02T07:47:36;16.70;93.70
66184;DHT22;52989;48.796;9.806;2022-09-02T07:50:02;17.00;93.20
66184;DHT22;52989;48.796;9.806;2022-09-02T07:52:28;17.30;93.20
66184;DHT22;52989;48.796;9.806;2022-09-02T07:54:54;17.20;92.60
66184;DHT22;52989;48.796;9.806;2022-09-02T07:57:20;17.30;93.20
66184;DHT22;52989;48.796;9.806;2022-09-02T07:59:46;17.30;92.20
66184;DHT22;52989;48.796;9.806;2022-09-02T08:02:12;17.50;91.20
66184;DHT22;52989;48.796;9.806;2022-09-02T08:04:39;17.70;92.00
66184;DHT22;52989;48.796;9.806;2022-09-02T08:07:05;17.60;89.30
66184;DHT22;52989;48.796;9.806;2022-09-02T08:09:31;17.70;89.10
66184;DHT22;52989;48.796;9.806;2022-09-02T08:11:57;17.70;90.50
66184;DHT22;52989;48.796;9.806;2022-09-02T08:14:25;17.80;90.50
66184;DHT22;52989;48.796;9.806;2022-09-02T08:16:54;18.10;90.00
66184;DHT22;52989;48.796;9.806;2022-09-02T08:19:21;18.00;88.20
66184;DHT22;52989;48.796;9.806;2022-09-02T08:21:46;17.90;86.70
66184;DHT22;52989;48.796;9.806;2022-09-02T08:24:12;18.00;85.60
66184;DHT22;52989;48.796;9.806;2022-09-02T08:26:38;18.10;87.90
66184;DHT22;52989;48.796;9.806;2022-09-02T08:29:05;18.10;87.80
66184;DHT22;52989;48.796;9.806;2022-09-02T08:31:31;18.30;85.70
66184;DHT22;52989;48.796;9.806;2022-09-02T08:33:58;18.30;84.90
66184;DHT22;52989;48.796;9.806;2022-09-02T08:36:24;18.40;84.80
66184;DHT22;52989;48.796;9.806;2022-09-02T08:38:51;18.40;84.20
66184;DHT22;52989;48.796;9.806;2022-09-02T08:41:32;18.40;84.60
66184;DHT22;52989;48.796;9.806;2022-09-02T08:43:59;18.40;84.70
66184;DHT22;52989;48.796;9.806;2022-09-02T08:46:27;18.60;84.80
66184;DHT22;52989;48.796;9.806;2022-09-02T08:48:59;18.60;83.10
66184;DHT22;52989;48.796;9.806;2022-09-02T08:52:03;18.60;81.60
66184;DHT22;52989;48.796;9.806;2022-09-02T08:54:32;18.70;82.10
66184;DHT22;52989;48.796;9.806;2022-09-02T08:57:01;18.80;84.00
66184;DHT22;52989;48.796;9.806;2022-09-02T08:59:29;18.90;84.10
66184;DHT22;52989;48.796;9.806;2022-09-02T09:02:26;19.10;81.40
66184;DHT22;52989;48.796;9.806;2022-09-02T09:05:29;19.00;79.70
66184;DHT22;52989;48.796;9.806;2022-09-02T09:08:05;19.20;79.60
66184;DHT22;52989;48.796;9.806;2022-09-02T09:18:02;19.40;75.00
66184;DHT22;52989;48.796;9.806;2022-09-02T09:20:34;19.50;75.60
66184;DHT22;52989;48.796;9.806;2022-09-02T09:23:30;19.70;77.00
66184;DHT22;52989;48.796;9.806;2022-09-02T09:26:25;19.80;75.60
66184;DHT22;52989;48.796;9.806;2022-09-02T09:28:52;19.80;74.30
66184;DHT22;52989;48.796;9.806;2022-09-02T09:31:21;19.90;71.90
66184;DHT22;52989;48.796;9.806;2022-09-02T09:39:32;20.30;69.80
66184;DHT22;52989;48.796;9.806;2022-09-02T09:42:02;20.40;68.90
66184;DHT22;52989;48.796;9.806;2022-09-02T09:44:34;20.60;69.10
66184;DHT22;52989;48.796;9.806;2022-09-02T09:47:04;20.60;68.20
66184;DHT22;52989;48.796;9.806;2022-09-02T09:49:31;20.60;67.10
66184;DHT22;52989;48.796;9.806;2022-09-02T09:51:58;20.60;68.50
66184;DHT22;52989;48.796;9.806;2022-09-02T09:54:26;20.70;67.80
66184;DHT22;52989;48.796;9.806;2022-09-02T09:56:53;20.60;66.00
66184;DHT22;52989;48.796;9.806;2022-09-02T09:59:53;20.60;66.00
66184;DHT22;52989;48.796;9.806;2022-09-02T10:02:25;21.00;68.50
66184;DHT22;52989;48.796;9.806;2022-09-02T10:05:38;20.90;65.00
66184;DHT22;52989;48.796;9.806;2022-09-02T10:07:41;20.90;68.80
66184;DHT22;52989;48.796;9.806;2022-09-02T10:10:19;20.90;66.70
66184;DHT22;52989;48.796;9.806;2022-09-02T10:12:46;21.10;66.90
66184;DHT22;52989;48.796;9.806;2022-09-02T10:15:12;21.20;69.00
66184;DHT22;52989;48.796;9.806;2022-09-02T10:18:22;21.30;63.60
66184;DHT22;52989;48.796;9.806;2022-09-02T10:21:02;21.40;64.10
66184;DHT22;52989;48.796;9.806;2022-09-02T10:26:14;21.70;63.80
66184;DHT22;52989;48.796;9.806;2022-09-02T10:29:15;21.80;63.30
66184;DHT22;52989;48.796;9.806;2022-09-02T10:31:49;21.70;62.00
66184;DHT22;52989;48.796;9.806;2022-09-02T10:37:29;21.70;62.40
66184;DHT22;52989;48.796;9.806;2022-09-02T10:42:59;21.70;62.20
66184;DHT22;52989;48.796;9.806;2022-09-02T10:48:26;21.80;62.80
66184;DHT22;52989;48.796;9.806;2022-09-02T10:51:05;21.90;60.00
66184;DHT22;52989;48.796;9.806;2022-09-02T10:53:40;21.90;60.50
66184;DHT22;52989;48.796;9.806;2022-09-02T10:56:22;21.90;61.00
66184;DHT22;52989;48.796;9.806;2022-09-02T10:59:05;21.80;61.90
66184;DHT22;52989;48.796;9.806;2022-09-02T11:04:15;21.90;61.40
66184;DHT22;52989;48.796;9.806;2022-09-02T11:06:43;22.10;62.10
66184;DHT22;52989;48.796;9.806;2022-09-02T11:11:56;22.40;60.70
66184;DHT22;52989;48.796;9.806;2022-09-02T11:14:32;22.40;57.50
66184;DHT22;52989;48.796;9.806;2022-09-02T11:17:28;22.40;59.00
66184;DHT22;52989;48.796;9.806;2022-09-02T11:20:00;22.40;61.60
66184;DHT22;52989;48.796;9.806;2022-09-02T11:25:26;22.40;57.40
66184;DHT22;52989;48.796;9.806;2022-09-02T11:30:30;22.40;58.10
66184;DHT22;52989;48.796;9.806;2022-09-02T11:35:36;22.50;58.30
66184;DHT22;52989;48.796;9.806;2022-09-02T11:40:58;22.60;59.10
66184;DHT22;52989;48.796;9.806;2022-09-02T11:52:20;22.70;59.20
66184;DHT22;52989;48.796;9.806;2022-09-02T11:57:30;22.70;57.20
66184;DHT22;52989;48.796;9.806;2022-09-02T12:02:42;22.90;57.10
66184;DHT22;52989;48.796;9.806;2022-09-02T12:08:04;22.70;57.60
66184;DHT22;52989;48.796;9.806;2022-09-02T12:13:44;23.00;57.50
66184;DHT22;52989;48.796;9.806;2022-09-02T12:21:21;23.20;57.40
66184;DHT22;52989;48.796;9.806;2022-09-02T12:26:27;22.90;57.40
66184;DHT22;52989;48.796;9.806;2022-09-02T12:31:46;23.30;56.70
66184;DHT22;52989;48.796;9.806;2022-09-02T12:36:54;23.60;58.30
66184;DHT22;52989;48.796;9.806;2022-09-02T12:42:23;23.50;56.50
66184;DHT22;52989;48.796;9.806;2022-09-02T12:45:24;23.40;57.50
66184;DHT22;52989;48.796;9.806;2022-09-02T12:58:20;23.30;58.20
66184;DHT22;52989;48.796;9.806;2022-09-02T13:03:50;23.50;57.50
66184;DHT22;52989;48.796;9.806;2022-09-02T13:17:47;23.50;58.50
66184;DHT22;52989;48.796;9.806;2022-09-02T13:20:39;23.70;59.00
66184;DHT22;52989;48.796;9.806;2022-09-02T13:26:27;23.50;60.10
66184;DHT22;52989;48.796;9.806;2022-09-02T13:32:26;23.90;60.30
66184;DHT22;52989;48.796;9.806;2022-09-02T13:34:55;23.80;58.10
66184;DHT22;52989;48.796;9.806;2022-09-02T13:37:30;23.60;57.10
66184;DHT22;52989;48.796;9.806;2022-09-02T13:39:57;23.60;57.30
66184;DHT22;52989;48.796;9.806;2022-09-02T13:42:25;23.60;58.30
66184;DHT22;52989;48.796;9.806;2022-09-02T13:45:15;23.60;60.40
66184;DHT22;52989;48.796;9.806;2022-09-02T13:47:47;23.80;60.50
66184;DHT22;52989;48.796;9.806;2022-09-02T13:50:17;24.10;59.50
66184;DHT22;52989;48.796;9.806;2022-09-02T13:52:46;24.00;57.60
66184;DHT22;52989;48.796;9.806;2022-09-02T13:55:14;24.10;57.50
66184;DHT22;52989;48.796;9.806;2022-09-02T13:57:45;23.90;58.50
66184;DHT22;52989;48.796;9.806;2022-09-02T14:00:14;23.90;57.90
66184;DHT22;52989;48.796;9.806;2022-09-02T14:02:40;23.90;56.70
66184;DHT22;52989;48.796;9.806;2022-09-02T14:05:11;23.80;57.50
66184;DHT22;52989;48.796;9.806;2022-09-02T14:07:43;23.80;60.50
66184;DHT22;52989;48.796;9.806;2022-09-02T14:10:12;23.80;57.40
66184;DHT22;52989;48.796;9.806;2022-09-02T14:12:41;24.00;56.70
66184;DHT22;52989;48.796;9.806;2022-09-02T14:15:11;24.30;57.00
66184;DHT22;52989;48.796;9.806;2022-09-02T14:17:37;24.10;56.50
66184;DHT22;52989;48.796;9.806;2022-09-02T14:20:22;24.20;57.30
66184;DHT22;52989;48.796;9.806;2022-09-02T14:22:58;24.20;56.00
66184;DHT22;52989;48.796;9.806;2022-09-02T14:25:25;24.10;57.50
66184;DHT22;52989;48.796;9.806;2022-09-02T14:27:58;24.00;55.20
66184;DHT22;52989;48.796;9.806;2022-09-02T14:30:33;24.20;56.80
66184;DHT22;52989;48.796;9.806;2022-09-02T14:33:42;24.40;57.00
66184;DHT22;52989;48.796;9.806;2022-09-02T14:43:48;24.30;54.90
66184;DHT22;52989;48.796;9.806;2022-09-02T14:48:53;24.20;55.30
66184;DHT22;52989;48.796;9.806;2022-09-02T14:51:20;24.10;54.10
66184;DHT22;52989;48.796;9.806;2022-09-02T14:53:46;24.20;53.70
66184;DHT22;52989;48.796;9.806;2022-09-02T14:56:11;24.10;56.20
66184;DHT22;52989;48.796;9.806;2022-09-02T14:58:37;24.10;55.90
66184;DHT22;52989;48.796;9.806;2022-09-02T15:01:03;24.20;54.90
66184;DHT22;52989;48.796;9.806;2022-09-02T15:03:31;24.40;55.30
66184;DHT22;52989;48.796;9.806;2022-09-02T15:06:01;24.40;54.50
66184;DHT22;52989;48.796;9.806;2022-09-02T15:08:26;24.40;55.30
66184;DHT22;52989;48.796;9.806;2022-09-02T15:10:52;24.10;54.20
66184;DHT22;52989;48.796;9.806;2022-09-02T15:13:28;24.20;55.80
66184;DHT22;52989;48.796;9.806;2022-09-02T15:15:56;24.30;54.60
66184;DHT22;52989;48.796;9.806;2022-09-02T15:18:23;24.20;57.70
66184;DHT22;52989;48.796;9.806;2022-09-02T15:20:49;24.20;55.40
66184;DHT22;52989;48.796;9.806;2022-09-02T15:23:15;23.90;54.20
66184;DHT22;52989;48.796;9.806;2022-09-02T15:25:41;23.90;58.00
66184;DHT22;52989;48.796;9.806;2022-09-02T15:28:06;23.80;55.40
66184;DHT22;52989;48.796;9.806;2022-09-02T15:30:33;23.90;54.40
66184;DHT22;52989;48.796;9.806;2022-09-02T15:33:04;23.90;55.50
66184;DHT22;52989;48.796;9.806;2022-09-02T15:35:33;23.80;55.60
66184;DHT22;52989;48.796;9.806;2022-09-02T15:38:01;23.80;56.40
66184;DHT22;52989;48.796;9.806;2022-09-02T15:40:28;23.60;57.30
66184;DHT22;52989;48.796;9.806;2022-09-02T15:42:54;23.60;55.40
66184;DHT22;52989;48.796;9.806;2022-09-02T15:45:21;23.40;54.60
66184;DHT22;52989;48.796;9.806;2022-09-02T15:47:46;23.50;56.40
66184;DHT22;52989;48.796;9.806;2022-09-02T15:50:12;23.60;56.30
66184;DHT22;52989;48.796;9.806;2022-09-02T15:52:38;23.60;57.70
66184;DHT22;52989;48.796;9.806;2022-09-02T15:55:04;23.50;60.30
66184;DHT22;52989;48.796;9.806;2022-09-02T15:57:29;23.50;56.20
66184;DHT22;52989;48.796;9.806;2022-09-02T15:59:55;23.50;57.30
66184;DHT22;52989;48.796;9.806;2022-09-02T16:02:21;23.40;57.40
66184;DHT22;52989;48.796;9.806;2022-09-02T16:04:48;23.30;55.80
66184;DHT22;52989;48.796;9.806;2022-09-02T16:07:14;23.30;56.30
66184;DHT22;52989;48.796;9.806;2022-09-02T16:09:39;23.30;56.70
66184;DHT22;52989;48.796;9.806;2022-09-02T16:12:05;23.20;58.30
66184;DHT22;52989;48.796;9.806;2022-09-02T16:14:31;23.20;56.00
66184;DHT22;52989;48.796;9.806;2022-09-02T16:16:58;23.20;56.30
66184;DHT22;52989;48.796;9.806;2022-09-02T16:19:25;22.90;57.10
66184;DHT22;52989;48.796;9.806;2022-09-02T16:21:52;22.80;58.10
66184;DHT22;52989;48.796;9.806;2022-09-02T16:24:18;22.80;59.80
66184;DHT22;52989;48.796;9.806;2022-09-02T16:26:45;22.50;58.00
66184;DHT22;52989;48.796;9.806;2022-09-02T16:29:13;22.30;57.60
66184;DHT22;52989;48.796;9.806;2022-09-02T16:31:40;22.30;58.90
66184;DHT22;52989;48.796;9.806;2022-09-02T16:34:10;22.20;58.90
66184;DHT22;52989;48.796;9.806;2022-09-02T16:36:39;22.10;59.50
66184;DHT22;52989;48.796;9.806;2022-09-02T16:39:06;22.00;60.00
66184;DHT22;52989;48.796;9.806;2022-09-02T16:44:07;21.80;60.40
66184;DHT22;52989;48.796;9.806;2022-09-02T16:46:34;21.80;59.80
66184;DHT22;52989;48.796;9.806;2022-09-02T16:49:00;21.70;60.40
66184;DHT22;52989;48.796;9.806;2022-09-02T16:51:27;21.70;60.40
66184;DHT22;52989;48.796;9.806;2022-09-02T16:53:56;21.50;60.30
66184;DHT22;52989;48.796;9.806;2022-09-02T16:56:23;21.40;60.40
66184;DHT22;52989;48.796;9.806;2022-09-02T16:58:49;21.40;60.50
66184;DHT22;52989;48.796;9.806;2022-09-02T17:01:15;21.30;61.00
66184;DHT22;52989;48.796;9.806;2022-09-02T17:03:43;21.30;60.90
66184;DHT22;52989;48.796;9.806;2022-09-02T17:06:09;21.10;62.30
66184;DHT22;52989;48.796;9.806;2022-09-02T17:08:36;21.00;61.50
66184;DHT22;52989;48.796;9.806;2022-09-02T17:11:11;21.00;63.20
66184;DHT22;52989;48.796;9.806;2022-09-02T17:13:37;21.00;62.10
66184;DHT22;52989;48.796;9.806;2022-09-02T17:16:05;21.00;63.30
66184;DHT22;52989;48.796;9.806;2022-09-02T17:18:30;20.90;62.90
66184;DHT22;52989;48.796;9.806;2022-09-02T17:23:46;20.80;62.20
66184;DHT22;52989;48.796;9.806;2022-09-02T17:26:14;20.80;63.30
66184;DHT22;52989;48.796;9.806;2022-09-02T17:28:40;20.70;62.10
66184;DHT22;52989;48.796;9.806;2022-09-02T17:31:26;20.60;63.70
66184;DHT22;52989;48.796;9.806;2022-09-02T17:33:54;20.40;63.80
66184;DHT22;52989;48.796;9.806;2022-09-02T17:36:21;20.30;63.50
66184;DHT22;52989;48.796;9.806;2022-09-02T17:38:53;20.20;63.90
66184;DHT22;52989;48.796;9.806;2022-09-02T17:41:19;20.10;64.80
66184;DHT22;52989;48.796;9.806;2022-09-02T17:44:04;20.10;64.30
66184;DHT22;52989;48.796;9.806;2022-09-02T17:46:29;19.90;64.50